Time,TemperatureF,DewpointF,PressureIn,WindDirection,WindDirectionDegrees,WindSpeedMPH,WindSpeedGustMPH,Humidity,HourlyPrecipIn,Conditions,Clouds,dailyrainin,SoftwareType,DateUTC
2013-06-06 00:01:00,70.7,69.2,30.03,South,183,6.0,6.0,95,0.01,,---,0.00,VWS V14.01,2013-06-06 04:01:00,
2013-06-06 00:02:00,70.7,69.2,30.03,SE,142,1.0,7.0,95,0.02,,---,0.01,VWS V14.01,2013-06-06 04:02:00,
2013-06-06 00:03:00,70.8,69.3,30.03,SE,126,5.0,7.0,95,0.04,,---,0.03,VWS V14.01,2013-06-06 04:03:00,
2013-06-06 00:05:00,70.7,69.2,30.03,SSE,163,1.0,7.0,95,0.09,,---,0.08,VWS V14.01,2013-06-06 04:05:00,
2013-06-06 00:10:00,70.6,69.1,30.03,SE,142,4.0,7.0,95,0.11,,---,0.10,VWS V14.01,2013-06-06 04:10:00,
2013-06-06 00:15:00,70.6,69.1,30.03,SE,137,4.0,7.0,95,0.13,,---,0.12,VWS V14.01,2013-06-06 04:15:00,
2013-06-06 00:20:00,70.6,69.1,30.03,South,172,2.0,5.0,95,0.15,,---,0.14,VWS V14.01,2013-06-06 04:20:00,
2013-06-06 00:25:00,70.6,69.1,30.03,South,176,1.0,5.0,95,0.17,,---,0.16,VWS V14.01,2013-06-06 04:25:00,
2013-06-06 00:31:00,70.6,69.1,30.03,SSE,161,1.0,3.0,95,0.18,,---,0.17,VWS V14.01,2013-06-06 04:31:00,
2013-06-06 00:36:00,70.6,69.1,30.03,ESE,113,0.0,4.0,95,0.20,,---,0.19,VWS V14.01,2013-06-06 04:36:00,
2013-06-06 00:41:00,70.6,69.4,30.03,SSE,147,4.0,4.0,96,0.20,,---,0.19,VWS V14.01,2013-06-06 04:41:00,
2013-06-06 00:46:00,70.6,69.4,30.03,South,178,4.0,4.0,96,0.21,,---,0.20,VWS V14.01,2013-06-06 04:46:00,
2013-06-06 00:51:00,70.6,69.4,30.03,SE,143,1.0,5.0,96,0.21,,---,0.20,VWS V14.01,2013-06-06 04:51:00,
2013-06-06 00:57:00,70.6,69.4,30.02,SE,128,0.0,5.0,96,0.21,,---,0.20,VWS V14.01,2013-06-06 04:57:00,
2013-06-06 01:02:00,70.5,69.3,30.02,SE,142,2.0,3.0,96,0.20,,---,0.20,VWS V14.01,2013-06-06 05:02:00,
2013-06-06 01:07:00,70.5,69.3,30.02,South,170,0.0,3.0,96,0.20,,---,0.20,VWS V14.01,2013-06-06 05:07:00,
2013-06-06 01:12:00,70.6,69.4,30.02,SSE,163,1.0,4.0,96,0.20,,---,0.20,VWS V14.01,2013-06-06 05:12:00,
2013-06-06 01:17:00,70.6,69.4,30.01,ESE,123,0.0,3.0,96,0.08,,---,0.20,VWS V14.01,2013-06-06 05:17:00,
2013-06-06 01:22:00,70.6,69.4,30.01,SSE,162,0.0,3.0,96,0.08,,---,0.20,VWS V14.01,2013-06-06 05:22:00,
2013-06-06 01:27:00,70.6,69.4,30.01,ESE,118,0.0,3.0,96,0.08,,---,0.20,VWS V14.01,2013-06-06 05:27:00,
2013-06-06 01:33:00,70.5,69.3,30.00,SE,132,0.0,5.0,96,0.03,,---,0.20,VWS V14.01,2013-06-06 05:33:00,
2013-06-06 01:38:00,70.5,69.3,30.00,South,172,6.0,7.0,96,0.03,,---,0.20,VWS V14.01,2013-06-06 05:38:00,
2013-06-06 01:43:00,70.5,69.3,30.01,SSE,150,0.0,7.0,96,0.03,,---,0.20,VWS V14.01,2013-06-06 05:43:00,
2013-06-06 01:48:00,70.6,69.4,30.00,ESE,123,1.0,2.0,96,0.00,,---,0.20,VWS V14.01,2013-06-06 05:48:00,
2013-06-06 01:53:00,70.6,69.4,30.00,ESE,122,3.0,5.0,96,0.00,,---,0.20,VWS V14.01,2013-06-06 05:53:00,
2013-06-06 01:58:00,70.6,69.4,30.00,SSE,154,0.0,5.0,96,0.00,,---,0.20,VWS V14.01,2013-06-06 05:58:00,
2013-06-06 02:03:00,70.6,69.4,30.00,SE,141,5.0,5.0,96,0.00,,---,0.20,VWS V14.01,2013-06-06 06:03:00,
2013-06-06 02:08:00,70.6,69.4,30.00,SE,135,0.0,5.0,96,0.00,,---,0.20,VWS V14.01,2013-06-06 06:08:00,
2013-06-06 02:13:00,70.5,69.3,30.00,SSW,206,3.0,5.0,96,0.00,,---,0.20,VWS V14.01,2013-06-06 06:13:00,
2013-06-06 02:18:00,70.5,69.3,29.99,SSE,148,8.0,8.0,96,0.00,,---,0.20,VWS V14.01,2013-06-06 06:18:00,
2013-06-06 02:24:00,70.5,69.3,29.99,SSE,154,0.0,8.0,96,0.00,,---,0.20,VWS V14.01,2013-06-06 06:24:00,
2013-06-06 02:29:00,70.5,69.3,29.99,SE,131,2.0,8.0,96,0.00,,---,0.20,VWS V14.01,2013-06-06 06:29:00,
2013-06-06 02:34:00,70.4,69.2,29.99,SSE,155,3.0,5.0,96,0.00,,---,0.20,VWS V14.01,2013-06-06 06:34:00,
2013-06-06 02:39:00,70.4,69.2,29.99,ESE,111,1.0,5.0,96,0.00,,---,0.20,VWS V14.01,2013-06-06 06:39:00,
2013-06-06 02:44:00,70.4,69.2,29.99,SSE,149,4.0,6.0,96,0.00,,---,0.20,VWS V14.01,2013-06-06 06:44:00,
2013-06-06 02:49:00,70.3,69.1,29.99,SSE,159,1.0,6.0,96,0.00,,---,0.20,VWS V14.01,2013-06-06 06:49:00,
2013-06-06 02:54:00,70.3,69.1,29.99,SE,146,1.0,6.0,96,0.00,,---,0.20,VWS V14.01,2013-06-06 06:54:00,
2013-06-06 03:00:00,70.2,69.0,29.99,ESE,123,1.0,6.0,96,0.00,,---,0.20,VWS V14.01,2013-06-06 07:00:00,
2013-06-06 03:05:00,70.2,69.0,29.98,SSE,159,0.0,4.0,96,0.00,,---,0.20,VWS V14.01,2013-06-06 07:05:00,
2013-06-06 03:10:00,70.1,68.9,29.98,ESE,113,3.0,7.0,96,0.03,,---,0.23,VWS V14.01,2013-06-06 07:10:00,
2013-06-06 03:15:00,70.1,68.9,29.98,SE,134,2.0,3.0,96,0.09,,---,0.29,VWS V14.01,2013-06-06 07:15:00,
2013-06-06 03:21:00,69.9,68.7,29.98,SSE,162,0.0,4.0,96,0.14,,---,0.34,VWS V14.01,2013-06-06 07:21:00,
2013-06-06 03:26:00,69.9,68.7,29.98,SSE,157,0.0,4.0,96,0.24,,---,0.44,VWS V14.01,2013-06-06 07:26:00,
2013-06-06 03:31:00,69.9,68.7,29.97,SSW,199,1.0,2.0,96,0.31,,---,0.51,VWS V14.01,2013-06-06 07:31:00,
2013-06-06 03:37:00,69.8,68.6,29.97,SSE,164,0.0,3.0,96,0.41,,---,0.61,VWS V14.01,2013-06-06 07:37:00,
2013-06-06 03:42:00,69.7,68.5,29.97,South,173,2.0,3.0,96,0.50,,---,0.70,VWS V14.01,2013-06-06 07:42:00,
2013-06-06 03:47:00,69.6,68.4,29.96,SE,125,3.0,5.0,96,0.56,,---,0.76,VWS V14.01,2013-06-06 07:47:00,
2013-06-06 03:52:00,69.5,68.3,29.96,SE,146,1.0,8.0,96,0.59,,---,0.79,VWS V14.01,2013-06-06 07:52:00,
2013-06-06 03:58:00,69.6,68.4,29.96,South,175,2.0,8.0,96,0.59,,---,0.79,VWS V14.01,2013-06-06 07:58:00,
2013-06-06 04:03:00,69.5,68.3,29.96,SE,141,4.0,7.0,96,0.59,,---,0.79,VWS V14.01,2013-06-06 08:03:00,
2013-06-06 04:08:00,69.6,68.4,29.96,SE,133,2.0,8.0,96,0.59,,---,0.79,VWS V14.01,2013-06-06 08:08:00,
2013-06-06 04:13:00,69.7,68.5,29.96,SSW,211,1.0,8.0,96,0.59,,---,0.79,VWS V14.01,2013-06-06 08:13:00,
2013-06-06 04:18:00,69.7,68.5,29.96,SSE,158,1.0,3.0,96,0.51,,---,0.79,VWS V14.01,2013-06-06 08:18:00,
2013-06-06 04:24:00,69.7,68.5,29.96,South,181,0.0,5.0,96,0.51,,---,0.79,VWS V14.01,2013-06-06 08:24:00,
2013-06-06 04:29:00,69.7,68.5,29.96,SE,132,1.0,5.0,96,0.51,,---,0.79,VWS V14.01,2013-06-06 08:29:00,
2013-06-06 04:34:00,69.7,68.5,29.96,SE,141,2.0,2.0,96,0.30,,---,0.79,VWS V14.01,2013-06-06 08:34:00,
2013-06-06 04:39:00,69.7,68.5,29.96,South,182,2.0,4.0,96,0.30,,---,0.79,VWS V14.01,2013-06-06 08:39:00,
2013-06-06 04:44:00,69.7,68.5,29.95,South,174,1.0,4.0,96,0.30,,---,0.79,VWS V14.01,2013-06-06 08:44:00,
2013-06-06 04:49:00,69.7,68.5,29.95,SSE,167,0.0,3.0,96,0.05,,---,0.79,VWS V14.01,2013-06-06 08:49:00,
2013-06-06 04:55:00,69.8,68.6,29.95,SSE,168,2.0,3.0,96,0.05,,---,0.79,VWS V14.01,2013-06-06 08:55:00,
2013-06-06 05:00:00,69.8,68.6,29.95,SE,139,0.0,3.0,96,0.05,,---,0.79,VWS V14.01,2013-06-06 09:00:00,
2013-06-06 05:05:00,69.8,68.6,29.95,SE,146,2.0,3.0,96,0.00,,---,0.79,VWS V14.01,2013-06-06 09:05:00,
2013-06-06 05:11:00,69.8,68.6,29.95,ESE,122,1.0,3.0,96,0.00,,---,0.79,VWS V14.01,2013-06-06 09:11:00,
2013-06-06 05:16:00,69.7,68.5,29.95,SSE,151,2.0,3.0,96,0.00,,---,0.79,VWS V14.01,2013-06-06 09:16:00,
2013-06-06 05:21:00,69.7,68.5,29.95,SE,132,1.0,3.0,96,0.00,,---,0.79,VWS V14.01,2013-06-06 09:21:00,
2013-06-06 05:26:00,69.7,68.5,29.95,ESE,123,0.0,5.0,96,0.00,,---,0.79,VWS V14.01,2013-06-06 09:26:00,
2013-06-06 05:32:00,69.7,68.5,29.95,SSE,165,1.0,7.0,96,0.00,,---,0.79,VWS V14.01,2013-06-06 09:32:00,
2013-06-06 05:37:00,69.7,68.5,29.95,ESE,122,5.0,7.0,96,0.00,,---,0.79,VWS V14.01,2013-06-06 09:37:00,
2013-06-06 05:42:00,69.7,68.5,29.95,SSE,148,6.0,7.0,96,0.00,,---,0.79,VWS V14.01,2013-06-06 09:42:00,
2013-06-06 05:47:00,69.6,68.4,29.95,South,178,0.0,5.0,96,0.00,,---,0.79,VWS V14.01,2013-06-06 09:47:00,
2013-06-06 05:52:00,69.7,68.5,29.95,SE,145,4.0,6.0,96,0.00,,---,0.79,VWS V14.01,2013-06-06 09:52:00,
2013-06-06 05:58:00,69.6,68.4,29.95,South,180,4.0,7.0,96,0.00,,---,0.79,VWS V14.01,2013-06-06 09:58:00,
2013-06-06 06:03:00,69.6,68.4,29.95,SSE,162,3.0,5.0,96,0.00,,---,0.79,VWS V14.01,2013-06-06 10:03:00,
2013-06-06 06:08:00,69.6,68.4,29.95,South,190,5.0,6.0,96,0.00,,---,0.79,VWS V14.01,2013-06-06 10:08:00,
2013-06-06 06:13:00,69.5,68.3,29.94,SE,133,0.0,6.0,96,0.00,,---,0.79,VWS V14.01,2013-06-06 10:13:00,
2013-06-06 06:18:00,69.5,68.3,29.95,SE,139,4.0,4.0,96,0.00,,---,0.79,VWS V14.01,2013-06-06 10:18:00,
2013-06-06 06:23:00,69.5,68.3,29.94,SSE,155,1.0,5.0,96,0.00,,---,0.79,VWS V14.01,2013-06-06 10:23:00,
2013-06-06 06:28:00,69.5,68.3,29.94,South,171,1.0,5.0,96,0.00,,---,0.79,VWS V14.01,2013-06-06 10:28:00,
2013-06-06 06:33:00,69.6,68.4,29.94,SSE,154,4.0,4.0,96,0.00,,---,0.79,VWS V14.01,2013-06-06 10:33:00,
2013-06-06 06:38:00,69.5,68.3,29.94,SE,144,1.0,6.0,96,0.00,,---,0.79,VWS V14.01,2013-06-06 10:38:00,
2013-06-06 06:44:00,69.6,68.4,29.94,SE,138,0.0,6.0,96,0.00,,---,0.79,VWS V14.01,2013-06-06 10:44:00,
2013-06-06 06:49:00,69.7,68.5,29.95,SSE,165,0.0,6.0,96,0.00,,---,0.79,VWS V14.01,2013-06-06 10:49:00,
2013-06-06 06:54:00,69.7,68.5,29.95,South,169,0.0,6.0,96,0.01,,---,0.80,VWS V14.01,2013-06-06 10:54:00,
2013-06-06 06:59:00,69.7,68.5,29.95,SE,146,4.0,6.0,96,0.01,,---,0.80,VWS V14.01,2013-06-06 10:59:00,
2013-06-06 07:04:00,69.7,68.5,29.95,SSE,165,1.0,5.0,96,0.01,,---,0.80,VWS V14.01,2013-06-06 11:04:00,
2013-06-06 07:09:00,69.7,68.5,29.95,SSE,153,5.0,6.0,96,0.01,,---,0.80,VWS V14.01,2013-06-06 11:09:00,
2013-06-06 07:14:00,69.7,68.5,29.95,SE,138,1.0,7.0,96,0.01,,---,0.80,VWS V14.01,2013-06-06 11:14:00,
2013-06-06 07:19:00,69.8,68.6,29.94,SSE,161,2.0,4.0,96,0.01,,---,0.80,VWS V14.01,2013-06-06 11:19:00,
2013-06-06 07:24:00,69.8,68.6,29.94,SE,139,0.0,5.0,96,0.01,,---,0.80,VWS V14.01,2013-06-06 11:24:00,
2013-06-06 07:29:00,69.9,68.7,29.94,SSE,160,0.0,5.0,96,0.01,,---,0.80,VWS V14.01,2013-06-06 11:29:00,
2013-06-06 07:35:00,69.9,68.7,29.94,SE,127,3.0,3.0,96,0.01,,---,0.80,VWS V14.01,2013-06-06 11:35:00,
2013-06-06 07:40:00,70.0,68.8,29.94,ESE,113,0.0,4.0,96,0.01,,---,0.80,VWS V14.01,2013-06-06 11:40:00,
2013-06-06 07:45:00,70.1,68.9,29.94,SSE,148,2.0,4.0,96,0.01,,---,0.80,VWS V14.01,2013-06-06 11:45:00,
2013-06-06 07:50:00,70.2,69.0,29.94,SSE,152,0.0,3.0,96,0.01,,---,0.80,VWS V14.01,2013-06-06 11:50:00,
2013-06-06 07:55:00,70.3,69.1,29.94,ESE,106,1.0,5.0,96,0.01,,---,0.80,VWS V14.01,2013-06-06 11:55:00,
2013-06-06 08:00:00,70.3,69.1,29.94,SSE,155,3.0,5.0,96,0.01,,---,0.80,VWS V14.01,2013-06-06 12:00:00,
2013-06-06 08:05:00,70.3,69.1,29.94,SSE,163,3.0,5.0,96,0.00,,---,0.80,VWS V14.01,2013-06-06 12:05:00,
2013-06-06 08:10:00,70.3,69.1,29.94,ESE,106,2.0,5.0,96,0.00,,---,0.80,VWS V14.01,2013-06-06 12:10:00,
2013-06-06 08:15:00,70.3,69.1,29.94,South,173,4.0,5.0,96,0.00,,---,0.80,VWS V14.01,2013-06-06 12:15:00,
2013-06-06 08:21:00,70.4,69.2,29.94,South,182,2.0,5.0,96,0.00,,---,0.80,VWS V14.01,2013-06-06 12:21:00,
2013-06-06 08:26:00,70.4,69.2,29.94,East,95,2.0,5.0,96,0.00,,---,0.80,VWS V14.01,2013-06-06 12:26:00,
2013-06-06 08:31:00,70.4,69.2,29.94,SE,128,0.0,3.0,96,0.00,,---,0.80,VWS V14.01,2013-06-06 12:31:00,
2013-06-06 08:36:00,70.5,69.3,29.93,SSE,152,5.0,6.0,96,0.00,,---,0.80,VWS V14.01,2013-06-06 12:36:00,
2013-06-06 08:41:00,70.6,69.4,29.93,SSE,156,4.0,6.0,96,0.00,,---,0.80,VWS V14.01,2013-06-06 12:41:00,
2013-06-06 08:46:00,70.6,69.4,29.93,SSE,149,3.0,5.0,96,0.00,,---,0.80,VWS V14.01,2013-06-06 12:46:00,
2013-06-06 08:52:00,70.8,69.6,29.94,SE,130,4.0,5.0,96,0.00,,---,0.80,VWS V14.01,2013-06-06 12:52:00,
2013-06-06 08:57:00,70.8,69.6,29.94,East,98,1.0,5.0,96,0.00,,---,0.80,VWS V14.01,2013-06-06 12:57:00,
2013-06-06 09:02:00,70.8,69.6,29.94,SSE,161,2.0,4.0,96,0.00,,---,0.80,VWS V14.01,2013-06-06 13:02:00,
2013-06-06 09:07:00,70.9,69.7,29.94,South,170,3.0,4.0,96,0.00,,---,0.80,VWS V14.01,2013-06-06 13:07:00,
2013-06-06 09:12:00,71.0,69.8,29.93,SSW,199,2.0,4.0,96,0.00,,---,0.80,VWS V14.01,2013-06-06 13:12:00,
2013-06-06 09:17:00,71.2,70.0,29.93,SSW,200,3.0,7.0,96,0.00,,---,0.80,VWS V14.01,2013-06-06 13:17:00,
2013-06-06 09:23:00,71.5,70.0,29.94,South,169,1.0,7.0,95,0.00,,---,0.80,VWS V14.01,2013-06-06 13:23:00,
2013-06-06 09:28:00,72.1,70.6,29.93,SSE,157,4.0,7.0,95,0.00,,---,0.80,VWS V14.01,2013-06-06 13:28:00,
2013-06-06 09:33:00,72.4,70.6,29.93,South,171,7.0,7.0,94,0.00,,---,0.80,VWS V14.01,2013-06-06 13:33:00,
2013-06-06 09:38:00,72.2,70.1,29.94,South,178,6.0,8.0,93,0.00,,---,0.80,VWS V14.01,2013-06-06 13:38:00,
2013-06-06 09:43:00,72.0,69.9,29.93,SSE,161,4.0,10.0,93,0.00,,---,0.80,VWS V14.01,2013-06-06 13:43:00,
2013-06-06 09:49:00,72.1,70.0,29.93,SSE,163,1.0,6.0,93,0.00,,---,0.80,VWS V14.01,2013-06-06 13:49:00,
2013-06-06 09:54:00,72.2,70.4,29.93,SSW,204,2.0,6.0,94,0.00,,---,0.80,VWS V14.01,2013-06-06 13:54:00,
2013-06-06 09:59:00,72.4,70.3,29.93,South,184,2.0,6.0,93,0.00,,---,0.80,VWS V14.01,2013-06-06 13:59:00,
2013-06-06 10:04:00,72.6,70.5,29.93,SE,133,3.0,9.0,93,0.00,,---,0.80,VWS V14.01,2013-06-06 14:04:00,
2013-06-06 10:10:00,72.7,70.6,29.93,SSE,148,3.0,9.0,93,0.00,,---,0.80,VWS V14.01,2013-06-06 14:10:00,
2013-06-06 10:15:00,72.9,70.4,29.93,SSW,196,2.0,9.0,92,0.00,,---,0.80,VWS V14.01,2013-06-06 14:15:00,
2013-06-06 10:20:00,73.2,70.7,29.93,SSE,161,3.0,7.0,92,0.00,,---,0.80,VWS V14.01,2013-06-06 14:20:00,
2013-06-06 10:25:00,73.6,71.1,29.93,South,182,2.0,7.0,92,0.00,,---,0.80,VWS V14.01,2013-06-06 14:25:00,
2013-06-06 10:30:00,73.8,71.0,29.93,SSW,193,4.0,5.0,91,0.00,,---,0.80,VWS V14.01,2013-06-06 14:30:00,
2013-06-06 10:35:00,73.4,70.6,29.93,SSE,168,3.0,8.0,91,0.00,,---,0.80,VWS V14.01,2013-06-06 14:35:00,
2013-06-06 10:41:00,73.4,70.6,29.93,South,172,2.0,8.0,91,0.00,,---,0.80,VWS V14.01,2013-06-06 14:41:00,
2013-06-06 10:47:00,73.7,70.6,29.93,South,177,4.0,6.0,90,0.00,,---,0.80,VWS V14.01,2013-06-06 14:47:00,
2013-06-06 10:52:00,73.8,70.7,29.93,South,187,2.0,7.0,90,0.00,,---,0.80,VWS V14.01,2013-06-06 14:52:00,
2013-06-06 10:58:00,74.1,71.3,29.93,South,182,6.0,7.0,91,0.00,,---,0.80,VWS V14.01,2013-06-06 14:58:00,
2013-06-06 11:03:00,74.3,70.8,29.93,South,174,3.0,6.0,89,0.00,,---,0.80,VWS V14.01,2013-06-06 15:03:00,
2013-06-06 11:08:00,74.7,71.2,29.93,SSE,163,3.0,7.0,89,0.00,,---,0.80,VWS V14.01,2013-06-06 15:08:00,
2013-06-06 11:13:00,74.8,71.3,29.93,SSW,201,3.0,7.0,89,0.00,,---,0.80,VWS V14.01,2013-06-06 15:13:00,
2013-06-06 11:18:00,74.7,70.9,29.92,SSE,161,3.0,9.0,88,0.00,,---,0.80,VWS V14.01,2013-06-06 15:18:00,
2013-06-06 11:24:00,74.9,71.1,29.92,ESE,111,2.0,9.0,88,0.00,,---,0.80,VWS V14.01,2013-06-06 15:24:00,
2013-06-06 11:29:00,74.9,71.1,29.92,SE,126,1.0,9.0,88,0.00,,---,0.80,VWS V14.01,2013-06-06 15:29:00,
2013-06-06 11:34:00,74.9,71.1,29.92,SW,217,6.0,7.0,88,0.00,,---,0.80,VWS V14.01,2013-06-06 15:34:00,
2013-06-06 11:39:00,75.1,71.0,29.92,South,188,0.0,7.0,87,0.00,,---,0.80,VWS V14.01,2013-06-06 15:39:00,
2013-06-06 11:44:00,76.0,71.5,29.92,SSE,147,2.0,7.0,86,0.00,,---,0.80,VWS V14.01,2013-06-06 15:44:00,
2013-06-06 11:50:00,76.2,71.7,29.92,South,180,3.0,7.0,86,0.00,,---,0.80,VWS V14.01,2013-06-06 15:50:00,
2013-06-06 11:55:00,76.0,71.5,29.92,South,189,4.0,7.0,86,0.00,,---,0.80,VWS V14.01,2013-06-06 15:55:00,
2013-06-06 12:00:00,75.6,71.1,29.92,SSW,205,1.0,7.0,86,0.00,,---,0.80,VWS V14.01,2013-06-06 16:00:00,
2013-06-06 12:05:00,75.0,71.5,29.92,SSE,154,1.0,8.0,89,0.00,,---,0.80,VWS V14.01,2013-06-06 16:05:00,
2013-06-06 12:10:00,74.5,71.7,29.92,SE,141,1.0,8.0,91,0.00,,---,0.80,VWS V14.01,2013-06-06 16:10:00,
2013-06-06 12:16:00,74.7,71.9,29.92,South,185,0.0,4.0,91,0.00,,---,0.80,VWS V14.01,2013-06-06 16:16:00,
2013-06-06 12:21:00,74.8,71.7,29.92,South,175,2.0,6.0,90,0.00,,---,0.80,VWS V14.01,2013-06-06 16:21:00,
2013-06-06 12:26:00,74.9,71.8,29.92,SSE,155,2.0,6.0,90,0.00,,---,0.80,VWS V14.01,2013-06-06 16:26:00,
2013-06-06 12:31:00,75.1,72.0,29.91,SSW,198,6.0,7.0,90,0.00,,---,0.80,VWS V14.01,2013-06-06 16:31:00,
2013-06-06 12:36:00,74.9,71.4,29.91,South,189,4.0,7.0,89,0.00,,---,0.80,VWS V14.01,2013-06-06 16:36:00,
2013-06-06 12:41:00,74.8,71.7,29.91,SSE,161,1.0,8.0,90,0.00,,---,0.80,VWS V14.01,2013-06-06 16:41:00,
2013-06-06 12:46:00,75.0,71.9,29.91,SE,135,6.0,7.0,90,0.00,,---,0.80,VWS V14.01,2013-06-06 16:46:00,
2013-06-06 12:51:00,75.1,72.0,29.90,South,180,2.0,7.0,90,0.00,,---,0.80,VWS V14.01,2013-06-06 16:51:00,
2013-06-06 12:57:00,75.1,72.0,29.90,SE,145,3.0,7.0,90,0.00,,---,0.80,VWS V14.01,2013-06-06 16:57:00,
2013-06-06 13:02:00,74.7,71.9,29.90,South,171,3.0,4.0,91,0.01,,---,0.81,VWS V14.01,2013-06-06 17:02:00,
2013-06-06 13:07:00,74.4,71.9,29.90,SSW,193,0.0,4.0,92,0.01,,---,0.81,VWS V14.01,2013-06-06 17:07:00,
2013-06-06 13:12:00,73.9,71.4,29.91,SSW,207,3.0,8.0,92,0.07,,---,0.87,VWS V14.01,2013-06-06 17:12:00,
2013-06-06 13:17:00,73.3,71.2,29.91,NW,304,2.0,4.0,93,0.18,,---,0.98,VWS V14.01,2013-06-06 17:17:00,
2013-06-06 13:22:00,72.6,70.5,29.90,WSW,248,2.0,5.0,93,0.22,,---,1.02,VWS V14.01,2013-06-06 17:22:00,
2013-06-06 13:28:00,72.8,71.0,29.90,South,190,3.0,5.0,94,0.22,,---,1.02,VWS V14.01,2013-06-06 17:28:00,
2013-06-06 13:33:00,72.9,71.4,29.90,SSE,163,3.0,4.0,95,0.25,,---,1.05,VWS V14.01,2013-06-06 17:33:00,
2013-06-06 13:38:00,73.0,71.5,29.90,South,175,0.0,4.0,95,0.27,,---,1.07,VWS V14.01,2013-06-06 17:38:00,
2013-06-06 13:43:00,73.5,72.0,29.89,SSW,201,2.0,4.0,95,0.27,,---,1.07,VWS V14.01,2013-06-06 17:43:00,
2013-06-06 13:49:00,73.7,72.2,29.89,South,180,2.0,4.0,95,0.27,,---,1.07,VWS V14.01,2013-06-06 17:49:00,
2013-06-06 13:54:00,74.0,72.5,29.89,SSE,164,1.0,4.0,95,0.27,,---,1.07,VWS V14.01,2013-06-06 17:54:00,
2013-06-06 14:00:00,74.0,71.8,29.89,SW,221,0.0,5.0,93,0.27,,---,1.07,VWS V14.01,2013-06-06 18:00:00,
2013-06-06 14:05:00,74.4,72.6,29.89,NW,306,1.0,6.0,94,0.26,,---,1.07,VWS V14.01,2013-06-06 18:05:00,
2013-06-06 14:10:00,74.0,71.5,29.89,SE,124,2.0,6.0,92,0.26,,---,1.07,VWS V14.01,2013-06-06 18:10:00,
2013-06-06 14:15:00,73.6,71.5,29.89,SW,218,3.0,6.0,93,0.26,,---,1.07,VWS V14.01,2013-06-06 18:15:00,
2013-06-06 14:20:00,73.3,71.2,29.89,SW,236,0.0,7.0,93,0.15,,---,1.09,VWS V14.01,2013-06-06 18:20:00,
2013-06-06 14:25:00,73.0,71.2,29.89,SSW,192,2.0,7.0,94,0.17,,---,1.11,VWS V14.01,2013-06-06 18:25:00,
2013-06-06 14:31:00,72.9,71.1,29.89,SSW,197,1.0,1.0,94,0.10,,---,1.12,VWS V14.01,2013-06-06 18:31:00,
2013-06-06 14:36:00,73.0,71.2,29.89,SW,214,4.0,5.0,94,0.10,,---,1.12,VWS V14.01,2013-06-06 18:36:00,
2013-06-06 14:41:00,73.2,71.4,29.88,SSE,159,2.0,7.0,94,0.10,,---,1.12,VWS V14.01,2013-06-06 18:41:00,
2013-06-06 14:47:00,73.6,71.5,29.87,SSE,155,0.0,5.0,93,0.05,,---,1.12,VWS V14.01,2013-06-06 18:47:00,
2013-06-06 14:52:00,73.9,71.8,29.87,SE,130,4.0,7.0,93,0.05,,---,1.12,VWS V14.01,2013-06-06 18:52:00,
2013-06-06 14:57:00,74.5,72.3,29.87,SW,219,1.0,7.0,93,0.05,,---,1.12,VWS V14.01,2013-06-06 18:57:00,
2013-06-06 15:03:00,75.0,72.2,29.88,SSW,202,2.0,6.0,91,0.05,,---,1.12,VWS V14.01,2013-06-06 19:03:00,
2013-06-06 15:08:00,75.6,73.1,29.88,South,171,0.0,6.0,92,0.05,,---,1.12,VWS V14.01,2013-06-06 19:08:00,
2013-06-06 15:13:00,75.6,72.5,29.88,SSE,163,3.0,6.0,90,0.05,,---,1.12,VWS V14.01,2013-06-06 19:13:00,
2013-06-06 15:18:00,75.5,72.4,29.87,South,180,1.0,7.0,90,0.05,,---,1.12,VWS V14.01,2013-06-06 19:18:00,
2013-06-06 15:24:00,75.6,72.8,29.87,SW,221,2.0,8.0,91,0.05,,---,1.12,VWS V14.01,2013-06-06 19:24:00,
2013-06-06 15:29:00,75.6,72.5,29.88,SW,215,2.0,8.0,90,0.05,,---,1.12,VWS V14.01,2013-06-06 19:29:00,
2013-06-06 15:34:00,75.5,72.4,29.88,SSW,198,2.0,5.0,90,0.00,,---,1.12,VWS V14.01,2013-06-06 19:34:00,
2013-06-06 15:36:00,75.3,71.8,29.88,West,268,7.0,7.0,89,0.00,,---,1.12,VWS V14.01,2013-06-06 19:36:00,
2013-06-06 15:41:00,74.7,71.6,29.88,NW,306,2.0,8.0,90,0.01,,---,1.13,VWS V14.01,2013-06-06 19:41:00,
2013-06-06 15:47:00,73.8,71.0,29.87,WNW,296,1.0,3.0,91,0.02,,---,1.14,VWS V14.01,2013-06-06 19:47:00,
2013-06-06 15:52:00,73.6,71.5,29.88,WNW,286,1.0,5.0,93,0.02,,---,1.14,VWS V14.01,2013-06-06 19:52:00,
2013-06-06 15:58:00,73.5,71.4,29.87,NW,312,0.0,5.0,93,0.02,,---,1.14,VWS V14.01,2013-06-06 19:58:00,
2013-06-06 16:03:00,73.2,71.1,29.88,WNW,293,3.0,8.0,93,0.08,,---,1.20,VWS V14.01,2013-06-06 20:03:00,
2013-06-06 16:08:00,72.4,70.3,29.88,South,182,3.0,8.0,93,0.09,,---,1.21,VWS V14.01,2013-06-06 20:08:00,
2013-06-06 16:13:00,72.6,70.8,29.88,SW,219,3.0,8.0,94,0.09,,---,1.21,VWS V14.01,2013-06-06 20:13:00,
2013-06-06 16:18:00,73.0,70.9,29.88,SSW,196,1.0,4.0,93,0.09,,---,1.21,VWS V14.01,2013-06-06 20:18:00,
2013-06-06 16:23:00,73.1,70.6,29.88,West,270,0.0,8.0,92,0.09,,---,1.21,VWS V14.01,2013-06-06 20:23:00,
2013-06-06 16:29:00,73.0,70.5,29.88,WSW,244,0.0,8.0,92,0.09,,---,1.21,VWS V14.01,2013-06-06 20:29:00,
2013-06-06 16:34:00,73.0,70.5,29.88,WNW,292,1.0,6.0,92,0.09,,---,1.21,VWS V14.01,2013-06-06 20:34:00,
2013-06-06 16:39:00,72.9,70.8,29.88,SSW,197,1.0,6.0,93,0.09,,---,1.21,VWS V14.01,2013-06-06 20:39:00,
2013-06-06 16:44:00,72.8,70.7,29.88,WNW,296,1.0,6.0,93,0.09,,---,1.21,VWS V14.01,2013-06-06 20:44:00,
2013-06-06 16:49:00,72.8,70.7,29.87,West,275,0.0,4.0,93,0.07,,---,1.21,VWS V14.01,2013-06-06 20:49:00,
2013-06-06 16:54:00,73.1,71.3,29.88,West,265,0.0,4.0,94,0.07,,---,1.21,VWS V14.01,2013-06-06 20:54:00,
2013-06-06 17:00:00,73.4,71.3,29.88,West,278,0.0,4.0,93,0.07,,---,1.21,VWS V14.01,2013-06-06 21:00:00,
2013-06-06 17:05:00,73.7,71.6,29.88,West,276,2.0,2.0,93,0.07,,---,1.21,VWS V14.01,2013-06-06 21:05:00,
2013-06-06 17:10:00,73.8,71.7,29.88,WNW,289,0.0,7.0,93,0.07,,---,1.21,VWS V14.01,2013-06-06 21:10:00,
2013-06-06 17:15:00,74.0,72.2,29.88,West,279,0.0,7.0,94,0.07,,---,1.21,VWS V14.01,2013-06-06 21:15:00,
2013-06-06 17:20:00,74.0,71.8,29.87,WSW,240,2.0,2.0,93,0.00,,---,1.21,VWS V14.01,2013-06-06 21:20:00,
2013-06-06 17:26:00,73.9,71.4,29.87,WNW,282,1.0,4.0,92,0.00,,---,1.21,VWS V14.01,2013-06-06 21:26:00,
2013-06-06 17:31:00,73.8,71.7,29.87,West,271,0.0,0.0,93,0.00,,---,1.21,VWS V14.01,2013-06-06 21:31:00,
2013-06-06 17:36:00,73.7,71.6,29.87,SW,217,0.0,3.0,93,0.00,,---,1.21,VWS V14.01,2013-06-06 21:36:00,
2013-06-06 17:41:00,73.6,71.5,29.87,South,171,2.0,4.0,93,0.00,,---,1.21,VWS V14.01,2013-06-06 21:41:00,
2013-06-06 17:46:00,73.7,71.6,29.86,West,265,0.0,1.0,93,0.00,,---,1.21,VWS V14.01,2013-06-06 21:46:00,
2013-06-06 17:51:00,73.8,71.3,29.86,SW,220,0.0,4.0,92,0.00,,---,1.21,VWS V14.01,2013-06-06 21:51:00,
2013-06-06 17:57:00,73.8,71.3,29.86,SSW,204,0.0,5.0,92,0.00,,---,1.21,VWS V14.01,2013-06-06 21:57:00,
2013-06-06 18:02:00,73.9,71.4,29.86,SSW,211,0.0,2.0,92,0.00,,---,1.21,VWS V14.01,2013-06-06 22:02:00,
2013-06-06 18:07:00,73.9,71.4,29.86,SW,227,0.0,2.0,92,0.00,,---,1.21,VWS V14.01,2013-06-06 22:07:00,
2013-06-06 18:12:00,73.9,71.4,29.86,SW,227,1.0,3.0,92,0.00,,---,1.21,VWS V14.01,2013-06-06 22:12:00,
2013-06-06 18:18:00,74.0,71.2,29.86,WSW,255,2.0,2.0,91,0.00,,---,1.21,VWS V14.01,2013-06-06 22:18:00,
2013-06-06 18:23:00,73.9,71.1,29.86,WSW,238,0.0,3.0,91,0.00,,---,1.21,VWS V14.01,2013-06-06 22:23:00,
2013-06-06 18:28:00,73.8,71.0,29.86,WSW,252,0.0,3.0,91,0.00,,---,1.21,VWS V14.01,2013-06-06 22:28:00,
2013-06-06 18:33:00,73.8,71.3,29.85,WSW,238,0.0,1.0,92,0.00,,---,1.21,VWS V14.01,2013-06-06 22:33:00,
2013-06-06 18:38:00,73.7,71.2,29.86,WSW,253,2.0,2.0,92,0.00,,---,1.21,VWS V14.01,2013-06-06 22:38:00,
2013-06-06 18:43:00,73.6,71.1,29.85,SW,231,0.0,3.0,92,0.00,,---,1.21,VWS V14.01,2013-06-06 22:43:00,
2013-06-06 18:49:00,73.6,71.1,29.85,SW,231,0.0,1.0,92,0.00,,---,1.21,VWS V14.01,2013-06-06 22:49:00,
2013-06-06 18:54:00,73.6,71.1,29.86,SW,231,0.0,1.0,92,0.00,,---,1.21,VWS V14.01,2013-06-06 22:54:00,
2013-06-06 18:59:00,73.7,71.2,29.86,SW,230,0.0,2.0,92,0.00,,---,1.21,VWS V14.01,2013-06-06 22:59:00,
2013-06-06 19:04:00,73.8,71.3,29.86,SW,228,0.0,2.0,92,0.00,,---,1.21,VWS V14.01,2013-06-06 23:04:00,
2013-06-06 19:09:00,74.0,71.5,29.86,SSW,201,3.0,3.0,92,0.00,,---,1.21,VWS V14.01,2013-06-06 23:09:00,
2013-06-06 19:14:00,73.9,71.1,29.87,South,171,5.0,6.0,91,0.00,,---,1.21,VWS V14.01,2013-06-06 23:14:00,
2013-06-06 19:19:00,73.1,69.0,29.87,South,188,4.0,8.0,87,0.00,,---,1.21,VWS V14.01,2013-06-06 23:19:00,
2013-06-06 19:25:00,72.2,68.1,29.87,ESE,123,10.0,10.0,87,0.00,,---,1.21,VWS V14.01,2013-06-06 23:25:00,
2013-06-06 19:30:00,71.7,68.0,29.87,SSW,202,2.0,10.0,88,0.00,,---,1.21,VWS V14.01,2013-06-06 23:30:00,
2013-06-06 19:35:00,71.2,68.1,29.88,SE,136,3.0,10.0,90,0.00,,---,1.21,VWS V14.01,2013-06-06 23:35:00,
2013-06-06 19:40:00,70.7,67.9,29.88,South,171,4.0,10.0,91,0.02,,---,1.23,VWS V14.01,2013-06-06 23:40:00,
2013-06-06 19:46:00,70.3,67.9,29.88,SE,141,3.0,4.0,92,0.02,,---,1.23,VWS V14.01,2013-06-06 23:46:00,
2013-06-06 19:51:00,70.0,67.9,29.88,SSW,207,5.0,7.0,93,0.02,,---,1.23,VWS V14.01,2013-06-06 23:51:00,
2013-06-06 19:57:00,69.8,67.7,29.87,SSW,193,3.0,7.0,93,0.02,,---,1.23,VWS V14.01,2013-06-06 23:57:00,
2013-06-06 20:02:00,69.7,67.9,29.88,SSE,153,2.0,5.0,94,0.02,,---,1.23,VWS V14.01,2013-06-07 00:02:00,
2013-06-06 20:07:00,69.6,67.8,29.87,SE,145,2.0,6.0,94,0.02,,---,1.23,VWS V14.01,2013-06-07 00:07:00,
2013-06-06 20:12:00,69.6,67.8,29.88,SSW,213,7.0,7.0,94,0.02,,---,1.23,VWS V14.01,2013-06-07 00:12:00,
2013-06-06 20:17:00,69.6,68.1,29.88,SW,218,2.0,3.0,95,0.02,,---,1.23,VWS V14.01,2013-06-07 00:17:00,
2013-06-06 20:22:00,69.5,68.0,29.88,South,184,3.0,5.0,95,0.02,,---,1.23,VWS V14.01,2013-06-07 00:22:00,
2013-06-06 20:28:00,69.5,68.0,29.88,SSW,213,3.0,5.0,95,0.02,,---,1.23,VWS V14.01,2013-06-07 00:28:00,
2013-06-06 20:33:00,69.4,67.9,29.88,South,186,0.0,4.0,95,0.02,,---,1.23,VWS V14.01,2013-06-07 00:33:00,
2013-06-06 20:38:00,69.3,67.8,29.88,SSW,208,1.0,4.0,95,0.03,,---,1.24,VWS V14.01,2013-06-07 00:38:00,
2013-06-06 20:43:00,69.2,67.7,29.88,SW,214,1.0,6.0,95,0.03,,---,1.24,VWS V14.01,2013-06-07 00:43:00,
2013-06-06 20:48:00,69.2,67.7,29.88,South,191,0.0,2.0,95,0.01,,---,1.24,VWS V14.01,2013-06-07 00:48:00,
2013-06-06 20:53:00,69.0,67.5,29.88,SSW,210,4.0,4.0,95,0.02,,---,1.25,VWS V14.01,2013-06-07 00:53:00,
2013-06-06 20:58:00,68.9,67.4,29.88,SSW,209,0.0,4.0,95,0.02,,---,1.25,VWS V14.01,2013-06-07 00:58:00,
2013-06-06 21:03:00,68.8,67.3,29.88,SW,221,0.0,2.0,95,0.02,,---,1.25,VWS V14.01,2013-06-07 01:03:00,
2013-06-06 21:08:00,68.8,67.3,29.88,SW,214,2.0,2.0,95,0.02,,---,1.25,VWS V14.01,2013-06-07 01:08:00,
2013-06-06 21:14:00,68.7,67.2,29.87,SSW,213,0.0,2.0,95,0.02,,---,1.25,VWS V14.01,2013-06-07 01:14:00,
2013-06-06 21:19:00,68.7,67.2,29.87,SSW,212,0.0,1.0,95,0.02,,---,1.25,VWS V14.01,2013-06-07 01:19:00,
2013-06-06 21:24:00,68.8,67.3,29.87,SSW,212,0.0,2.0,95,0.02,,---,1.25,VWS V14.01,2013-06-07 01:24:00,
2013-06-06 21:29:00,68.8,67.6,29.87,SSW,212,0.0,2.0,96,0.02,,---,1.25,VWS V14.01,2013-06-07 01:29:00,
2013-06-06 21:34:00,68.7,67.5,29.87,SSW,212,0.0,0.0,96,0.02,,---,1.25,VWS V14.01,2013-06-07 01:34:00,
2013-06-06 21:39:00,68.7,67.5,29.88,SSW,212,0.0,0.0,96,0.02,,---,1.25,VWS V14.01,2013-06-07 01:39:00,
2013-06-06 21:44:00,68.7,67.5,29.88,SSW,212,0.0,0.0,96,0.02,,---,1.25,VWS V14.01,2013-06-07 01:44:00,
2013-06-06 21:49:00,68.7,67.5,29.88,SSW,212,0.0,0.0,96,0.01,,---,1.25,VWS V14.01,2013-06-07 01:49:00,
2013-06-06 21:55:00,68.7,67.5,29.88,SSW,212,0.0,0.0,96,0.01,,---,1.25,VWS V14.01,2013-06-07 01:55:00,
2013-06-06 22:00:00,68.8,67.6,29.88,SSW,212,0.0,0.0,96,0.01,,---,1.25,VWS V14.01,2013-06-07 02:00:00,
2013-06-06 22:05:00,68.8,67.6,29.88,SSW,212,0.0,0.0,96,0.00,,---,1.25,VWS V14.01,2013-06-07 02:05:00,
2013-06-06 22:10:00,68.8,67.6,29.88,SSW,213,0.0,0.0,96,0.01,,---,1.26,VWS V14.01,2013-06-07 02:10:00,
2013-06-06 22:15:00,68.8,67.6,29.88,SSW,212,0.0,0.0,96,0.01,,---,1.26,VWS V14.01,2013-06-07 02:15:00,
2013-06-06 22:20:00,68.8,67.6,29.88,SSW,212,0.0,0.0,96,0.01,,---,1.26,VWS V14.01,2013-06-07 02:20:00,
2013-06-06 22:25:00,68.7,67.5,29.88,SSW,212,0.0,0.0,96,0.01,,---,1.26,VWS V14.01,2013-06-07 02:25:00,
2013-06-06 22:30:00,68.6,67.4,29.88,SSW,212,0.0,0.0,96,0.01,,---,1.26,VWS V14.01,2013-06-07 02:30:00,
2013-06-06 22:35:00,68.6,67.7,29.88,SSW,212,0.0,0.0,97,0.01,,---,1.26,VWS V14.01,2013-06-07 02:35:00,
2013-06-06 22:40:00,68.6,67.7,29.88,SSW,212,0.0,0.0,97,0.01,,---,1.26,VWS V14.01,2013-06-07 02:40:00,
2013-06-06 22:46:00,68.5,67.6,29.88,SSW,212,0.0,0.0,97,0.01,,---,1.26,VWS V14.01,2013-06-07 02:46:00,
2013-06-06 22:51:00,68.5,67.6,29.87,SSW,212,0.0,0.0,97,0.01,,---,1.26,VWS V14.01,2013-06-07 02:51:00,
2013-06-06 22:57:00,68.5,67.6,29.87,SSW,212,0.0,1.0,97,0.01,,---,1.26,VWS V14.01,2013-06-07 02:57:00,
2013-06-06 23:02:00,68.5,67.6,29.87,SSW,212,0.0,0.0,97,0.01,,---,1.26,VWS V14.01,2013-06-07 03:02:00,
2013-06-06 23:07:00,68.5,67.6,29.87,SSW,212,0.0,0.0,97,0.02,,---,1.27,VWS V14.01,2013-06-07 03:07:00,
2013-06-06 23:12:00,68.5,67.6,29.87,SSW,212,0.0,0.0,97,0.02,,---,1.27,VWS V14.01,2013-06-07 03:12:00,
2013-06-06 23:17:00,68.5,67.6,29.87,SSE,161,0.0,1.0,97,0.01,,---,1.27,VWS V14.01,2013-06-07 03:17:00,
2013-06-06 23:22:00,68.5,67.6,29.87,SSE,161,0.0,1.0,97,0.01,,---,1.27,VWS V14.01,2013-06-07 03:22:00,
2013-06-06 23:27:00,68.5,67.6,29.87,SSE,161,0.0,1.0,97,0.01,,---,1.27,VWS V14.01,2013-06-07 03:27:00,
2013-06-06 23:32:00,68.5,67.6,29.86,SSE,161,0.0,1.0,97,0.02,,---,1.28,VWS V14.01,2013-06-07 03:32:00,
2013-06-06 23:37:00,68.5,67.6,29.86,SSE,161,0.0,1.0,97,0.02,,---,1.28,VWS V14.01,2013-06-07 03:37:00,
2013-06-06 23:43:00,68.5,67.6,29.86,SSE,161,0.0,1.0,97,0.02,,---,1.28,VWS V14.01,2013-06-07 03:43:00,
2013-06-06 23:48:00,68.5,67.6,29.86,SSE,161,0.0,0.0,97,0.02,,---,1.28,VWS V14.01,2013-06-07 03:48:00,
2013-06-06 23:53:00,68.6,67.7,29.86,SSE,161,0.0,0.0,97,0.03,,---,1.29,VWS V14.01,2013-06-07 03:53:00,
2013-06-06 23:58:00,68.5,67.6,29.86,SSE,161,0.0,0.0,97,0.03,,---,1.29,VWS V14.01,2013-06-07 03:58:00,